sensor_id;sensor_type;location;lat;lon;timestamp;P1;durP1;ratioP1;P2;durP2;ratioP2
26946;SDS011;14501;52.282;10.560;2023-05-10T00:00:46;3.38;;;2.85;;
26946;SDS011;14501;52.282;10.560;2023-05-10T00:03:12;3.95;;;3.13;;
26946;SDS011;14501;52.282;10.560;2023-05-10T00:05:38;4.20;;;3.35;;
26946;SDS011;14501;52.282;10.560;2023-05-10T00:08:03;6.88;;;3.10;;
26946;SDS011;14501;52.282;10.560;2023-05-10T00:10:29;3.92;;;3.00;;
26946;SDS011;14501;52.282;10.560;2023-05-10T00:12:55;5.03;;;3.10;;
26946;SDS011;14501;52.282;10.560;2023-05-10T00:15:20;3.53;;;2.70;;
26946;SDS011;14501;52.282;10.560;2023-05-10T00:17:46;4.85;;;3.33;;
26946;SDS011;14501;52.282;10.560;2023-05-10T00:20:12;4.45;;;3.40;;
26946;SDS011;14501;52.282;10.560;2023-05-10T00:22:37;4.60;;;3.33;;
26946;SDS011;14501;52.282;10.560;2023-05-10T00:25:03;5.38;;;3.28;;
26946;SDS011;14501;52.282;10.560;2023-05-10T00:27:29;7.10;;;3.33;;
26946;SDS011;14501;52.282;10.560;2023-05-10T00:29:55;5.20;;;3.60;;
26946;SDS011;14501;52.282;10.560;2023-05-10T00:32:20;4.43;;;3.53;;
26946;SDS011;14501;52.282;10.560;2023-05-10T00:34:46;3.88;;;3.17;;
26946;SDS011;14501;52.282;10.560;2023-05-10T00:37:12;4.22;;;3.17;;
26946;SDS011;14501;52.282;10.560;2023-05-10T00:39:37;4.40;;;3.25;;
26946;SDS011;14501;52.282;10.560;2023-05-10T00:42:03;4.35;;;3.15;;
26946;SDS011;14501;52.282;10.560;2023-05-10T00:44:29;5.55;;;2.88;;
26946;SDS011;14501;52.282;10.560;2023-05-10T00:46:56;4.45;;;3.40;;
26946;SDS011;14501;52.282;10.560;2023-05-10T00:49:22;3.85;;;2.90;;
26946;SDS011;14501;52.282;10.560;2023-05-10T00:51:48;3.53;;;2.95;;
26946;SDS011;14501;52.282;10.560;2023-05-10T00:54:14;6.05;;;3.13;;
26946;SDS011;14501;52.282;10.560;2023-05-10T00:56:41;6.85;;;3.60;;
26946;SDS011;14501;52.282;10.560;2023-05-10T00:59:09;3.05;;;2.75;;
26946;SDS011;14501;52.282;10.560;2023-05-10T01:01:35;4.28;;;3.03;;
26946;SDS011;14501;52.282;10.560;2023-05-10T01:04:01;4.22;;;3.28;;
26946;SDS011;14501;52.282;10.560;2023-05-10T01:06:28;4.25;;;2.80;;
26946;SDS011;14501;52.282;10.560;2023-05-10T01:08:54;5.05;;;2.72;;
26946;SDS011;14501;52.282;10.560;2023-05-10T01:11:20;4.00;;;3.03;;
26946;SDS011;14501;52.282;10.560;2023-05-10T01:13:47;3.20;;;2.90;;
26946;SDS011;14501;52.282;10.560;2023-05-10T01:16:20;4.65;;;2.85;;
26946;SDS011;14501;52.282;10.560;2023-05-10T01:18:45;2.90;;;2.63;;
26946;SDS011;14501;52.282;10.560;2023-05-10T01:24:03;3.95;;;2.67;;
26946;SDS011;14501;52.282;10.560;2023-05-10T01:32:44;4.15;;;3.22;;
26946;SDS011;14501;52.282;10.560;2023-05-10T01:35:20;4.78;;;3.22;;
26946;SDS011;14501;52.282;10.560;2023-05-10T01:40:36;5.60;;;3.97;;
26946;SDS011;14501;52.282;10.560;2023-05-10T01:43:17;5.93;;;2.92;;
26946;SDS011;14501;52.282;10.560;2023-05-10T01:45:54;3.88;;;3.00;;
26946;SDS011;14501;52.282;10.560;2023-05-10T01:48:40;6.30;;;3.03;;
26946;SDS011;14501;52.282;10.560;2023-05-10T01:51:17;4.75;;;2.97;;
26946;SDS011;14501;52.282;10.560;2023-05-10T01:53:47;5.22;;;2.80;;
26946;SDS011;14501;52.282;10.560;2023-05-10T01:56:14;6.40;;;3.28;;
26946;SDS011;14501;52.282;10.560;2023-05-10T01:58:41;4.78;;;2.85;;
26946;SDS011;14501;52.282;10.560;2023-05-10T02:01:10;4.88;;;2.70;;
26946;SDS011;14501;52.282;10.560;2023-05-10T02:03:37;3.22;;;2.65;;
26946;SDS011;14501;52.282;10.560;2023-05-10T02:06:13;3.92;;;2.85;;
26946;SDS011;14501;52.282;10.560;2023-05-10T02:08:41;5.35;;;2.92;;
26946;SDS011;14501;52.282;10.560;2023-05-10T02:11:10;3.90;;;3.03;;
26946;SDS011;14501;52.282;10.560;2023-05-10T02:13:38;3.80;;;2.67;;
26946;SDS011;14501;52.282;10.560;2023-05-10T02:16:08;8.88;;;3.15;;
26946;SDS011;14501;52.282;10.560;2023-05-10T02:18:35;3.60;;;2.85;;
26946;SDS011;14501;52.282;10.560;2023-05-10T02:21:02;4.50;;;3.47;;
26946;SDS011;14501;52.282;10.560;2023-05-10T02:23:28;4.68;;;3.10;;
26946;SDS011;14501;52.282;10.560;2023-05-10T02:25:55;5.97;;;2.75;;
26946;SDS011;14501;52.282;10.560;2023-05-10T02:28:23;3.67;;;3.15;;
26946;SDS011;14501;52.282;10.560;2023-05-10T02:30:51;4.38;;;3.03;;
26946;SDS011;14501;52.282;10.560;2023-05-10T02:33:18;7.85;;;3.40;;
26946;SDS011;14501;52.282;10.560;2023-05-10T02:35:45;8.93;;;3.22;;
26946;SDS011;14501;52.282;10.560;2023-05-10T02:38:11;3.63;;;2.97;;
26946;SDS011;14501;52.282;10.560;2023-05-10T02:40:39;4.47;;;3.50;;
26946;SDS011;14501;52.282;10.560;2023-05-10T02:43:12;4.97;;;3.33;;
26946;SDS011;14501;52.282;10.560;2023-05-10T02:45:39;4.22;;;3.60;;
26946;SDS011;14501;52.282;10.560;2023-05-10T02:48:06;5.60;;;3.58;;
26946;SDS011;14501;52.282;10.560;2023-05-10T02:50:33;5.85;;;3.70;;
26946;SDS011;14501;52.282;10.560;2023-05-10T02:53:00;5.47;;;3.75;;
26946;SDS011;14501;52.282;10.560;2023-05-10T02:55:31;6.63;;;3.67;;
26946;SDS011;14501;52.282;10.560;2023-05-10T02:58:00;3.88;;;3.42;;
26946;SDS011;14501;52.282;10.560;2023-05-10T03:00:27;6.40;;;3.47;;
26946;SDS011;14501;52.282;10.560;2023-05-10T03:02:53;5.43;;;3.97;;
26946;SDS011;14501;52.282;10.560;2023-05-10T03:05:19;6.85;;;3.85;;
26946;SDS011;14501;52.282;10.560;2023-05-10T03:07:45;6.15;;;3.53;;
26946;SDS011;14501;52.282;10.560;2023-05-10T03:10:11;5.80;;;4.20;;
26946;SDS011;14501;52.282;10.560;2023-05-10T03:15:50;5.15;;;3.70;;
26946;SDS011;14501;52.282;10.560;2023-05-10T03:18:21;5.90;;;3.47;;
26946;SDS011;14501;52.282;10.560;2023-05-10T03:20:54;4.60;;;3.70;;
26946;SDS011;14501;52.282;10.560;2023-05-10T03:23:26;8.77;;;3.63;;
26946;SDS011;14501;52.282;10.560;2023-05-10T03:25:57;5.72;;;4.10;;
26946;SDS011;14501;52.282;10.560;2023-05-10T03:28:24;8.23;;;3.53;;
26946;SDS011;14501;52.282;10.560;2023-05-10T03:30:52;10.40;;;4.75;;
26946;SDS011;14501;52.282;10.560;2023-05-10T03:33:19;6.88;;;4.07;;
26946;SDS011;14501;52.282;10.560;2023-05-10T03:35:45;9.18;;;4.25;;
26946;SDS011;14501;52.282;10.560;2023-05-10T03:38:14;5.57;;;3.88;;
26946;SDS011;14501;52.282;10.560;2023-05-10T03:40:39;4.50;;;3.47;;
26946;SDS011;14501;52.282;10.560;2023-05-10T03:43:05;6.00;;;4.00;;
26946;SDS011;14501;52.282;10.560;2023-05-10T03:45:31;8.23;;;4.43;;
26946;SDS011;14501;52.282;10.560;2023-05-10T03:47:57;6.38;;;4.35;;
26946;SDS011;14501;52.282;10.560;2023-05-10T03:50:23;5.57;;;4.60;;
26946;SDS011;14501;52.282;10.560;2023-05-10T03:52:49;9.48;;;3.97;;
26946;SDS011;14501;52.282;10.560;2023-05-10T03:55:15;4.70;;;3.67;;
26946;SDS011;14501;52.282;10.560;2023-05-10T03:57:41;5.88;;;3.75;;
26946;SDS011;14501;52.282;10.560;2023-05-10T04:00:07;7.72;;;3.70;;
26946;SDS011;14501;52.282;10.560;2023-05-10T04:02:33;5.18;;;4.30;;
26946;SDS011;14501;52.282;10.560;2023-05-10T04:04:59;6.55;;;4.25;;
26946;SDS011;14501;52.282;10.560;2023-05-10T04:07:25;7.40;;;4.50;;
26946;SDS011;14501;52.282;10.560;2023-05-10T04:09:50;5.70;;;4.20;;
26946;SDS011;14501;52.282;10.560;2023-05-10T04:12:16;6.88;;;3.65;;
26946;SDS011;14501;52.282;10.560;2023-05-10T04:14:42;5.72;;;3.75;;
26946;SDS011;14501;52.282;10.560;2023-05-10T04:17:07;5.57;;;4.10;;
26946;SDS011;14501;52.282;10.560;2023-05-10T04:19:33;8.73;;;4.30;;
26946;SDS011;14501;52.282;10.560;2023-05-10T04:21:59;5.78;;;4.05;;
26946;SDS011;14501;52.282;10.560;2023-05-10T04:24:24;5.05;;;3.72;;
26946;SDS011;14501;52.282;10.560;2023-05-10T04:26:50;5.82;;;4.13;;
26946;SDS011;14501;52.282;10.560;2023-05-10T04:29:16;6.80;;;3.92;;
26946;SDS011;14501;52.282;10.560;2023-05-10T04:31:42;6.43;;;3.83;;
26946;SDS011;14501;52.282;10.560;2023-05-10T04:34:07;8.05;;;4.00;;
26946;SDS011;14501;52.282;10.560;2023-05-10T04:36:33;6.10;;;4.13;;
26946;SDS011;14501;52.282;10.560;2023-05-10T04:39:00;6.45;;;3.88;;
26946;SDS011;14501;52.282;10.560;2023-05-10T04:41:27;6.57;;;4.00;;
26946;SDS011;14501;52.282;10.560;2023-05-10T04:43:53;6.45;;;4.10;;
26946;SDS011;14501;52.282;10.560;2023-05-10T04:46:20;4.80;;;3.88;;
26946;SDS011;14501;52.282;10.560;2023-05-10T04:48:45;4.95;;;3.63;;
26946;SDS011;14501;52.282;10.560;2023-05-10T04:51:11;6.70;;;3.97;;
26946;SDS011;14501;52.282;10.560;2023-05-10T04:53:37;9.55;;;4.28;;
26946;SDS011;14501;52.282;10.560;2023-05-10T04:56:02;8.43;;;4.15;;
26946;SDS011;14501;52.282;10.560;2023-05-10T04:58:28;7.43;;;3.72;;
26946;SDS011;14501;52.282;10.560;2023-05-10T05:00:54;4.93;;;4.05;;
26946;SDS011;14501;52.282;10.560;2023-05-10T05:03:20;6.53;;;4.03;;
26946;SDS011;14501;52.282;10.560;2023-05-10T05:05:45;4.43;;;3.35;;
26946;SDS011;14501;52.282;10.560;2023-05-10T05:08:11;6.28;;;4.25;;
26946;SDS011;14501;52.282;10.560;2023-05-10T05:10:37;5.80;;;4.07;;
26946;SDS011;14501;52.282;10.560;2023-05-10T05:13:03;6.65;;;4.10;;
26946;SDS011;14501;52.282;10.560;2023-05-10T05:15:28;7.03;;;4.20;;
26946;SDS011;14501;52.282;10.560;2023-05-10T05:17:55;6.53;;;3.92;;
26946;SDS011;14501;52.282;10.560;2023-05-10T05:20:21;5.93;;;4.28;;
26946;SDS011;14501;52.282;10.560;2023-05-10T05:22:47;6.40;;;4.10;;
26946;SDS011;14501;52.282;10.560;2023-05-10T05:25:12;5.00;;;3.92;;
26946;SDS011;14501;52.282;10.560;2023-05-10T05:27:38;8.00;;;4.32;;
26946;SDS011;14501;52.282;10.560;2023-05-10T05:30:04;5.75;;;4.25;;
26946;SDS011;14501;52.282;10.560;2023-05-10T05:32:31;6.22;;;4.30;;
26946;SDS011;14501;52.282;10.560;2023-05-10T05:34:57;9.18;;;4.53;;
26946;SDS011;14501;52.282;10.560;2023-05-10T05:37:22;6.68;;;4.03;;
26946;SDS011;14501;52.282;10.560;2023-05-10T05:39:49;5.60;;;4.30;;
26946;SDS011;14501;52.282;10.560;2023-05-10T05:42:20;6.05;;;4.40;;
26946;SDS011;14501;52.282;10.560;2023-05-10T05:44:53;5.68;;;4.15;;
26946;SDS011;14501;52.282;10.560;2023-05-10T05:47:19;5.95;;;4.60;;
26946;SDS011;14501;52.282;10.560;2023-05-10T05:49:44;6.25;;;4.53;;
26946;SDS011;14501;52.282;10.560;2023-05-10T05:52:12;5.93;;;4.15;;
26946;SDS011;14501;52.282;10.560;2023-05-10T05:54:38;7.03;;;4.30;;
26946;SDS011;14501;52.282;10.560;2023-05-10T05:57:04;10.07;;;4.95;;
26946;SDS011;14501;52.282;10.560;2023-05-10T05:59:30;7.13;;;4.78;;
26946;SDS011;14501;52.282;10.560;2023-05-10T06:01:56;7.15;;;4.60;;
26946;SDS011;14501;52.282;10.560;2023-05-10T06:04:21;8.43;;;4.90;;
26946;SDS011;14501;52.282;10.560;2023-05-10T06:06:47;7.43;;;4.65;;
26946;SDS011;14501;52.282;10.560;2023-05-10T06:09:14;4.90;;;4.22;;
26946;SDS011;14501;52.282;10.560;2023-05-10T06:11:39;7.85;;;5.40;;
26946;SDS011;14501;52.282;10.560;2023-05-10T06:14:05;9.88;;;5.85;;
26946;SDS011;14501;52.282;10.560;2023-05-10T06:16:32;7.53;;;5.00;;
26946;SDS011;14501;52.282;10.560;2023-05-10T06:18:59;8.82;;;4.80;;
26946;SDS011;14501;52.282;10.560;2023-05-10T06:21:24;7.95;;;5.45;;
26946;SDS011;14501;52.282;10.560;2023-05-10T06:23:50;6.80;;;5.10;;
26946;SDS011;14501;52.282;10.560;2023-05-10T06:26:16;5.93;;;4.78;;
26946;SDS011;14501;52.282;10.560;2023-05-10T06:28:41;6.60;;;4.32;;
26946;SDS011;14501;52.282;10.560;2023-05-10T06:31:07;6.22;;;4.95;;
26946;SDS011;14501;52.282;10.560;2023-05-10T06:33:33;6.72;;;4.97;;
26946;SDS011;14501;52.282;10.560;2023-05-10T06:35:59;8.13;;;4.70;;
26946;SDS011;14501;52.282;10.560;2023-05-10T06:38:25;5.57;;;4.40;;
26946;SDS011;14501;52.282;10.560;2023-05-10T06:40:51;9.13;;;5.00;;
26946;SDS011;14501;52.282;10.560;2023-05-10T06:43:17;5.90;;;4.57;;
26946;SDS011;14501;52.282;10.560;2023-05-10T06:45:42;7.28;;;5.32;;
26946;SDS011;14501;52.282;10.560;2023-05-10T06:48:08;6.68;;;5.40;;
26946;SDS011;14501;52.282;10.560;2023-05-10T06:50:34;10.20;;;4.90;;
26946;SDS011;14501;52.282;10.560;2023-05-10T06:53:00;6.25;;;4.88;;
26946;SDS011;14501;52.282;10.560;2023-05-10T06:55:29;6.90;;;4.82;;
26946;SDS011;14501;52.282;10.560;2023-05-10T06:57:54;8.75;;;5.70;;
26946;SDS011;14501;52.282;10.560;2023-05-10T07:00:20;9.95;;;5.43;;
26946;SDS011;14501;52.282;10.560;2023-05-10T07:02:46;8.38;;;4.97;;
26946;SDS011;14501;52.282;10.560;2023-05-10T07:05:12;8.50;;;5.93;;
26946;SDS011;14501;52.282;10.560;2023-05-10T07:07:39;9.43;;;6.28;;
26946;SDS011;14501;52.282;10.560;2023-05-10T07:10:05;7.07;;;5.72;;
26946;SDS011;14501;52.282;10.560;2023-05-10T07:12:32;7.18;;;5.43;;
26946;SDS011;14501;52.282;10.560;2023-05-10T07:14:57;8.40;;;5.93;;
26946;SDS011;14501;52.282;10.560;2023-05-10T07:17:23;9.27;;;6.30;;
26946;SDS011;14501;52.282;10.560;2023-05-10T07:19:49;10.70;;;6.30;;
26946;SDS011;14501;52.282;10.560;2023-05-10T07:22:15;7.93;;;6.30;;
26946;SDS011;14501;52.282;10.560;2023-05-10T07:24:41;9.30;;;6.78;;
26946;SDS011;14501;52.282;10.560;2023-05-10T07:27:07;10.23;;;6.68;;
26946;SDS011;14501;52.282;10.560;2023-05-10T07:29:34;10.65;;;6.78;;
26946;SDS011;14501;52.282;10.560;2023-05-10T07:32:00;10.02;;;7.28;;
26946;SDS011;14501;52.282;10.560;2023-05-10T07:34:26;9.75;;;6.93;;
26946;SDS011;14501;52.282;10.560;2023-05-10T07:36:52;12.27;;;7.00;;
26946;SDS011;14501;52.282;10.560;2023-05-10T07:39:18;12.40;;;7.65;;
26946;SDS011;14501;52.282;10.560;2023-05-10T07:41:43;10.25;;;6.80;;
26946;SDS011;14501;52.282;10.560;2023-05-10T07:44:09;11.85;;;7.50;;
26946;SDS011;14501;52.282;10.560;2023-05-10T07:46:34;9.80;;;7.10;;
26946;SDS011;14501;52.282;10.560;2023-05-10T07:49:00;10.80;;;7.75;;
26946;SDS011;14501;52.282;10.560;2023-05-10T07:51:26;13.70;;;7.63;;
26946;SDS011;14501;52.282;10.560;2023-05-10T07:53:52;11.70;;;7.25;;
26946;SDS011;14501;52.282;10.560;2023-05-10T07:58:52;12.02;;;6.68;;
26946;SDS011;14501;52.282;10.560;2023-05-10T08:01:18;11.45;;;7.00;;
26946;SDS011;14501;52.282;10.560;2023-05-10T08:03:44;9.45;;;7.40;;
26946;SDS011;14501;52.282;10.560;2023-05-10T08:06:10;11.95;;;7.15;;
26946;SDS011;14501;52.282;10.560;2023-05-10T08:08:36;13.07;;;8.02;;
26946;SDS011;14501;52.282;10.560;2023-05-10T08:11:01;10.35;;;7.05;;
26946;SDS011;14501;52.282;10.560;2023-05-10T08:13:28;10.07;;;7.57;;
26946;SDS011;14501;52.282;10.560;2023-05-10T08:15:53;13.10;;;8.52;;
26946;SDS011;14501;52.282;10.560;2023-05-10T08:18:19;11.77;;;7.90;;
26946;SDS011;14501;52.282;10.560;2023-05-10T08:20:45;10.68;;;7.45;;
26946;SDS011;14501;52.282;10.560;2023-05-10T08:23:13;11.95;;;7.28;;
26946;SDS011;14501;52.282;10.560;2023-05-10T08:25:39;11.63;;;7.35;;
26946;SDS011;14501;52.282;10.560;2023-05-10T08:28:05;9.20;;;6.95;;
26946;SDS011;14501;52.282;10.560;2023-05-10T08:30:31;10.50;;;7.25;;
26946;SDS011;14501;52.282;10.560;2023-05-10T08:32:56;12.25;;;7.72;;
26946;SDS011;14501;52.282;10.560;2023-05-10T08:35:22;12.05;;;7.93;;
26946;SDS011;14501;52.282;10.560;2023-05-10T08:37:47;12.05;;;7.72;;
26946;SDS011;14501;52.282;10.560;2023-05-10T08:40:13;10.32;;;7.75;;
26946;SDS011;14501;52.282;10.560;2023-05-10T08:42:41;11.32;;;8.10;;
26946;SDS011;14501;52.282;10.560;2023-05-10T08:45:12;11.63;;;8.65;;
26946;SDS011;14501;52.282;10.560;2023-05-10T08:47:40;13.80;;;9.38;;
26946;SDS011;14501;52.282;10.560;2023-05-10T08:50:06;15.23;;;9.43;;
26946;SDS011;14501;52.282;10.560;2023-05-10T08:52:32;13.15;;;8.40;;
26946;SDS011;14501;52.282;10.560;2023-05-10T08:55:00;12.02;;;8.68;;
26946;SDS011;14501;52.282;10.560;2023-05-10T08:57:26;11.50;;;8.85;;
26946;SDS011;14501;52.282;10.560;2023-05-10T08:59:51;11.85;;;8.98;;
26946;SDS011;14501;52.282;10.560;2023-05-10T09:02:18;13.35;;;9.07;;
26946;SDS011;14501;52.282;10.560;2023-05-10T09:04:45;11.80;;;8.80;;
26946;SDS011;14501;52.282;10.560;2023-05-10T09:07:10;12.93;;;9.73;;
26946;SDS011;14501;52.282;10.560;2023-05-10T09:09:37;12.65;;;8.70;;
26946;SDS011;14501;52.282;10.560;2023-05-10T09:12:03;12.20;;;9.35;;
26946;SDS011;14501;52.282;10.560;2023-05-10T09:14:29;13.85;;;9.32;;
26946;SDS011;14501;52.282;10.560;2023-05-10T09:16:55;14.25;;;10.07;;
26946;SDS011;14501;52.282;10.560;2023-05-10T09:19:21;15.18;;;9.73;;
26946;SDS011;14501;52.282;10.560;2023-05-10T09:21:47;11.73;;;9.48;;
26946;SDS011;14501;52.282;10.560;2023-05-10T09:24:14;14.43;;;9.52;;
26946;SDS011;14501;52.282;10.560;2023-05-10T09:26:46;14.15;;;8.90;;
26946;SDS011;14501;52.282;10.560;2023-05-10T09:29:16;10.98;;;8.73;;
26946;SDS011;14501;52.282;10.560;2023-05-10T09:34:20;15.25;;;10.05;;
26946;SDS011;14501;52.282;10.560;2023-05-10T09:36:58;15.45;;;10.30;;
26946;SDS011;14501;52.282;10.560;2023-05-10T09:39:34;17.45;;;10.75;;
26946;SDS011;14501;52.282;10.560;2023-05-10T09:42:02;12.77;;;9.00;;
26946;SDS011;14501;52.282;10.560;2023-05-10T09:44:29;13.93;;;10.38;;
26946;SDS011;14501;52.282;10.560;2023-05-10T09:46:56;16.83;;;9.90;;
26946;SDS011;14501;52.282;10.560;2023-05-10T09:49:22;13.48;;;9.50;;
26946;SDS011;14501;52.282;10.560;2023-05-10T09:51:57;15.30;;;10.90;;
26946;SDS011;14501;52.282;10.560;2023-05-10T09:54:28;13.00;;;10.27;;
26946;SDS011;14501;52.282;10.560;2023-05-10T09:56:54;12.93;;;9.77;;
26946;SDS011;14501;52.282;10.560;2023-05-10T09:59:20;13.65;;;10.18;;
26946;SDS011;14501;52.282;10.560;2023-05-10T10:01:49;17.08;;;10.02;;
26946;SDS011;14501;52.282;10.560;2023-05-10T10:04:18;11.35;;;8.23;;
26946;SDS011;14501;52.282;10.560;2023-05-10T10:10:21;8.75;;;5.03;;
26946;SDS011;14501;52.282;10.560;2023-05-10T10:12:47;6.60;;;4.22;;
26946;SDS011;14501;52.282;10.560;2023-05-10T10:15:13;4.85;;;3.55;;
26946;SDS011;14501;52.282;10.560;2023-05-10T10:17:39;4.10;;;3.05;;
26946;SDS011;14501;52.282;10.560;2023-05-10T10:20:06;3.70;;;3.22;;
26946;SDS011;14501;52.282;10.560;2023-05-10T10:22:32;2.72;;;2.53;;
26946;SDS011;14501;52.282;10.560;2023-05-10T10:24:58;3.78;;;2.58;;
26946;SDS011;14501;52.282;10.560;2023-05-10T10:27:26;2.38;;;2.00;;
26946;SDS011;14501;52.282;10.560;2023-05-10T10:31:11;1.88;;;1.67;;
26946;SDS011;14501;52.282;10.560;2023-05-10T10:35:44;2.22;;;1.80;;
26946;SDS011;14501;52.282;10.560;2023-05-10T10:42:55;2.15;;;1.25;;
26946;SDS011;14501;52.282;10.560;2023-05-10T10:45:22;3.83;;;1.70;;
26946;SDS011;14501;52.282;10.560;2023-05-10T10:47:53;1.50;;;1.13;;
26946;SDS011;14501;52.282;10.560;2023-05-10T10:50:45;1.20;;;1.10;;
26946;SDS011;14501;52.282;10.560;2023-05-10T10:53:11;1.63;;;0.98;;
26946;SDS011;14501;52.282;10.560;2023-05-10T10:55:45;2.17;;;1.10;;
26946;SDS011;14501;52.282;10.560;2023-05-10T10:58:15;1.13;;;0.85;;
26946;SDS011;14501;52.282;10.560;2023-05-10T11:01:09;0.82;;;0.82;;
26946;SDS011;14501;52.282;10.560;2023-05-10T11:05:53;1.20;;;1.10;;
26946;SDS011;14501;52.282;10.560;2023-05-10T11:08:30;2.97;;;1.70;;
26946;SDS011;14501;52.282;10.560;2023-05-10T11:13:29;1.23;;;0.95;;
26946;SDS011;14501;52.282;10.560;2023-05-10T11:19:03;2.80;;;1.13;;
26946;SDS011;14501;52.282;10.560;2023-05-10T11:21:29;2.53;;;0.95;;
26946;SDS011;14501;52.282;10.560;2023-05-10T11:23:56;0.80;;;0.80;;
26946;SDS011;14501;52.282;10.560;2023-05-10T11:26:24;2.58;;;1.10;;
26946;SDS011;14501;52.282;10.560;2023-05-10T11:28:52;1.55;;;0.63;;
26946;SDS011;14501;52.282;10.560;2023-05-10T11:31:23;2.38;;;1.10;;
26946;SDS011;14501;52.282;10.560;2023-05-10T11:33:52;1.23;;;0.90;;
26946;SDS011;14501;52.282;10.560;2023-05-10T11:36:26;1.35;;;1.13;;
26946;SDS011;14501;52.282;10.560;2023-05-10T11:38:53;4.03;;;1.45;;
26946;SDS011;14501;52.282;10.560;2023-05-10T11:41:20;1.08;;;0.98;;
26946;SDS011;14501;52.282;10.560;2023-05-10T11:43:49;1.23;;;1.13;;
26946;SDS011;14501;52.282;10.560;2023-05-10T11:46:17;0.90;;;0.90;;
26946;SDS011;14501;52.282;10.560;2023-05-10T11:48:46;1.00;;;1.00;;
26946;SDS011;14501;52.282;10.560;2023-05-10T11:51:14;1.25;;;1.15;;
26946;SDS011;14501;52.282;10.560;2023-05-10T11:53:40;0.98;;;0.93;;
26946;SDS011;14501;52.282;10.560;2023-05-10T11:56:06;1.17;;;1.08;;
26946;SDS011;14501;52.282;10.560;2023-05-10T11:58:33;1.02;;;1.00;;
26946;SDS011;14501;52.282;10.560;2023-05-10T12:00:59;1.08;;;1.00;;
26946;SDS011;14501;52.282;10.560;2023-05-10T12:03:26;1.98;;;1.00;;
26946;SDS011;14501;52.282;10.560;2023-05-10T12:05:52;1.05;;;1.00;;
26946;SDS011;14501;52.282;10.560;2023-05-10T12:08:21;0.90;;;0.90;;
26946;SDS011;14501;52.282;10.560;2023-05-10T12:10:48;0.93;;;0.88;;
26946;SDS011;14501;52.282;10.560;2023-05-10T12:13:14;2.75;;;0.85;;
26946;SDS011;14501;52.282;10.560;2023-05-10T12:15:40;0.85;;;0.82;;
26946;SDS011;14501;52.282;10.560;2023-05-10T12:18:10;1.10;;;1.00;;
26946;SDS011;14501;52.282;10.560;2023-05-10T12:20:36;1.27;;;0.88;;
26946;SDS011;14501;52.282;10.560;2023-05-10T12:23:02;1.00;;;0.88;;
26946;SDS011;14501;52.282;10.560;2023-05-10T12:25:32;2.10;;;0.80;;
26946;SDS011;14501;52.282;10.560;2023-05-10T12:27:59;1.25;;;0.70;;
26946;SDS011;14501;52.282;10.560;2023-05-10T12:30:28;0.80;;;0.80;;
26946;SDS011;14501;52.282;10.560;2023-05-10T12:33:08;1.48;;;0.70;;
26946;SDS011;14501;52.282;10.560;2023-05-10T12:35:51;1.25;;;0.98;;
26946;SDS011;14501;52.282;10.560;2023-05-10T12:40:50;0.80;;;0.80;;
26946;SDS011;14501;52.282;10.560;2023-05-10T12:43:15;2.08;;;0.82;;
26946;SDS011;14501;52.282;10.560;2023-05-10T12:45:41;0.82;;;0.82;;
26946;SDS011;14501;52.282;10.560;2023-05-10T12:48:07;1.50;;;1.00;;
26946;SDS011;14501;52.282;10.560;2023-05-10T12:50:32;4.00;;;1.15;;
26946;SDS011;14501;52.282;10.560;2023-05-10T12:52:58;0.80;;;0.80;;
26946;SDS011;14501;52.282;10.560;2023-05-10T12:55:23;1.65;;;0.82;;
26946;SDS011;14501;52.282;10.560;2023-05-10T12:57:49;2.25;;;1.55;;
26946;SDS011;14501;52.282;10.560;2023-05-10T13:00:15;1.23;;;0.90;;
26946;SDS011;14501;52.282;10.560;2023-05-10T13:02:41;1.02;;;0.82;;
26946;SDS011;14501;52.282;10.560;2023-05-10T13:05:06;1.30;;;0.98;;
26946;SDS011;14501;52.282;10.560;2023-05-10T13:07:32;1.85;;;1.30;;
26946;SDS011;14501;52.282;10.560;2023-05-10T13:09:58;3.92;;;0.93;;
26946;SDS011;14501;52.282;10.560;2023-05-10T13:12:23;2.70;;;0.90;;
26946;SDS011;14501;52.282;10.560;2023-05-10T13:14:49;2.55;;;0.95;;
26946;SDS011;14501;52.282;10.560;2023-05-10T13:17:14;1.95;;;0.85;;
26946;SDS011;14501;52.282;10.560;2023-05-10T13:19:40;2.55;;;0.88;;
26946;SDS011;14501;52.282;10.560;2023-05-10T13:22:06;0.75;;;0.70;;
26946;SDS011;14501;52.282;10.560;2023-05-10T13:24:31;3.47;;;1.00;;
26946;SDS011;14501;52.282;10.560;2023-05-10T13:26:57;1.25;;;0.80;;
26946;SDS011;14501;52.282;10.560;2023-05-10T13:29:23;2.00;;;0.93;;
26946;SDS011;14501;52.282;10.560;2023-05-10T13:31:48;2.05;;;1.02;;
26946;SDS011;14501;52.282;10.560;2023-05-10T13:34:14;2.60;;;1.02;;
26946;SDS011;14501;52.282;10.560;2023-05-10T13:36:40;0.85;;;0.85;;
26946;SDS011;14501;52.282;10.560;2023-05-10T13:39:06;2.58;;;0.80;;
26946;SDS011;14501;52.282;10.560;2023-05-10T13:41:31;2.40;;;0.90;;
26946;SDS011;14501;52.282;10.560;2023-05-10T13:43:57;2.20;;;1.10;;
26946;SDS011;14501;52.282;10.560;2023-05-10T13:46:23;1.33;;;0.95;;
26946;SDS011;14501;52.282;10.560;2023-05-10T13:48:48;1.60;;;0.85;;
26946;SDS011;14501;52.282;10.560;2023-05-10T13:51:14;5.03;;;1.10;;
26946;SDS011;14501;52.282;10.560;2023-05-10T13:53:40;3.13;;;1.20;;
26946;SDS011;14501;52.282;10.560;2023-05-10T13:56:06;2.88;;;1.20;;
26946;SDS011;14501;52.282;10.560;2023-05-10T13:58:32;2.80;;;1.00;;
26946;SDS011;14501;52.282;10.560;2023-05-10T14:00:57;1.80;;;1.08;;
26946;SDS011;14501;52.282;10.560;2023-05-10T14:03:23;1.65;;;1.00;;
26946;SDS011;14501;52.282;10.560;2023-05-10T14:05:48;3.97;;;1.70;;
26946;SDS011;14501;52.282;10.560;2023-05-10T14:08:14;1.50;;;1.17;;
26946;SDS011;14501;52.282;10.560;2023-05-10T14:10:40;3.03;;;0.98;;
26946;SDS011;14501;52.282;10.560;2023-05-10T14:13:05;2.60;;;1.45;;
26946;SDS011;14501;52.282;10.560;2023-05-10T14:15:31;0.82;;;0.80;;
26946;SDS011;14501;52.282;10.560;2023-05-10T14:17:57;2.78;;;1.08;;
26946;SDS011;14501;52.282;10.560;2023-05-10T14:20:22;4.18;;;1.70;;
26946;SDS011;14501;52.282;10.560;2023-05-10T14:22:48;1.20;;;1.10;;
26946;SDS011;14501;52.282;10.560;2023-05-10T14:25:14;1.10;;;0.90;;
26946;SDS011;14501;52.282;10.560;2023-05-10T14:27:39;1.60;;;1.10;;
26946;SDS011;14501;52.282;10.560;2023-05-10T14:30:05;2.10;;;1.17;;
26946;SDS011;14501;52.282;10.560;2023-05-10T14:32:31;3.28;;;1.38;;
26946;SDS011;14501;52.282;10.560;2023-05-10T14:34:57;1.48;;;1.00;;
26946;SDS011;14501;52.282;10.560;2023-05-10T14:37:23;1.95;;;1.30;;
26946;SDS011;14501;52.282;10.560;2023-05-10T14:39:48;2.03;;;1.33;;
26946;SDS011;14501;52.282;10.560;2023-05-10T14:42:14;2.95;;;1.15;;
26946;SDS011;14501;52.282;10.560;2023-05-10T14:44:39;1.98;;;1.20;;
26946;SDS011;14501;52.282;10.560;2023-05-10T14:47:05;2.58;;;1.15;;
26946;SDS011;14501;52.282;10.560;2023-05-10T14:49:31;2.30;;;0.93;;
26946;SDS011;14501;52.282;10.560;2023-05-10T14:51:56;2.95;;;1.30;;
26946;SDS011;14501;52.282;10.560;2023-05-10T14:54:22;1.30;;;1.00;;
26946;SDS011;14501;52.282;10.560;2023-05-10T14:56:47;1.05;;;0.85;;
26946;SDS011;14501;52.282;10.560;2023-05-10T14:59:14;1.15;;;0.70;;
26946;SDS011;14501;52.282;10.560;2023-05-10T15:01:40;1.92;;;0.88;;
26946;SDS011;14501;52.282;10.560;2023-05-10T15:04:07;1.63;;;0.73;;
26946;SDS011;14501;52.282;10.560;2023-05-10T15:06:33;1.55;;;1.00;;
26946;SDS011;14501;52.282;10.560;2023-05-10T15:08:59;2.00;;;1.00;;
26946;SDS011;14501;52.282;10.560;2023-05-10T15:11:26;3.00;;;0.90;;